sensor_id;sensor_type;location;lat;lon;timestamp;pressure;altitude;pressure_sealevel;temperature;humidity
27840;BME280;15207;42.182;24.308;2022-12-07T00:01:07;99416.13;;;4.59;100.00
27840;BME280;15207;42.182;24.308;2022-12-07T00:03:35;99414.19;;;4.62;100.00
27840;BME280;15207;42.182;24.308;2022-12-07T00:06:01;99421.22;;;4.63;100.00
27840;BME280;15207;42.182;24.308;2022-12-07T00:08:28;99426.53;;;4.63;100.00
27840;BME280;15207;42.182;24.308;2022-12-07T00:10:53;99423.88;;;4.63;100.00
27840;BME280;15207;42.182;24.308;2022-12-07T00:13:19;99422.84;;;4.66;100.00
27840;BME280;15207;42.182;24.308;2022-12-07T00:15:45;99422.78;;;4.68;100.00
27840;BME280;15207;42.182;24.308;2022-12-07T00:18:10;99411.81;;;4.74;100.00
27840;BME280;15207;42.182;24.308;2022-12-07T00:20:36;99415.25;;;4.76;100.00
27840;BME280;15207;42.182;24.308;2022-12-07T00:23:01;99413.38;;;4.78;100.00
27840;BME280;15207;42.182;24.308;2022-12-07T00:25:27;99424.84;;;4.79;100.00
27840;BME280;15207;42.182;24.308;2022-12-07T00:27:53;99426.31;;;4.84;100.00
27840;BME280;15207;42.182;24.308;2022-12-07T00:30:22;99418.28;;;4.86;100.00
27840;BME280;15207;42.182;24.308;2022-12-07T00:32:48;99419.84;;;4.90;100.00
27840;BME280;15207;42.182;24.308;2022-12-07T00:35:13;99424.47;;;5.02;100.00
27840;BME280;15207;42.182;24.308;2022-12-07T00:37:39;99420.44;;;4.95;100.00
27840;BME280;15207;42.182;24.308;2022-12-07T00:40:05;99417.94;;;4.92;100.00
27840;BME280;15207;42.182;24.308;2022-12-07T00:42:31;99414.34;;;4.93;100.00
27840;BME280;15207;42.182;24.308;2022-12-07T00:44:56;99414.25;;;4.95;100.00
27840;BME280;15207;42.182;24.308;2022-12-07T00:47:22;99412.97;;;5.02;100.00
27840;BME280;15207;42.182;24.308;2022-12-07T00:49:48;99401.75;;;4.97;100.00
27840;BME280;15207;42.182;24.308;2022-12-07T00:52:13;99403.03;;;4.89;100.00
27840;BME280;15207;42.182;24.308;2022-12-07T00:54:39;99406.66;;;4.88;100.00
27840;BME280;15207;42.182;24.308;2022-12-07T00:57:05;99416.03;;;4.78;100.00
27840;BME280;15207;42.182;24.308;2022-12-07T00:59:31;99408.38;;;4.72;100.00
27840;BME280;15207;42.182;24.308;2022-12-07T01:01:57;99409.50;;;4.68;100.00
27840;BME280;15207;42.182;24.308;2022-12-07T01:04:22;99401.16;;;4.58;100.00
27840;BME280;15207;42.182;24.308;2022-12-07T01:06:48;99398.69;;;4.55;100.00
27840;BME280;15207;42.182;24.308;2022-12-07T01:09:13;99390.94;;;4.50;100.00
27840;BME280;15207;42.182;24.308;2022-12-07T01:11:39;99393.59;;;4.50;100.00
27840;BME280;15207;42.182;24.308;2022-12-07T01:14:04;99385.94;;;4.61;100.00
27840;BME280;15207;42.182;24.308;2022-12-07T01:16:31;99389.38;;;4.63;100.00
27840;BME280;15207;42.182;24.308;2022-12-07T01:18:58;99381.41;;;4.63;100.00
27840;BME280;15207;42.182;24.308;2022-12-07T01:21:27;99386.44;;;4.52;100.00
27840;BME280;15207;42.182;24.308;2022-12-07T01:23:53;99388.91;;;4.55;100.00
27840;BME280;15207;42.182;24.308;2022-12-07T01:26:20;99383.78;;;4.52;100.00
27840;BME280;15207;42.182;24.308;2022-12-07T01:28:46;99371.84;;;4.43;100.00
27840;BME280;15207;42.182;24.308;2022-12-07T01:31:18;99367.97;;;4.33;100.00
27840;BME280;15207;42.182;24.308;2022-12-07T01:33:45;99372.47;;;4.48;100.00
27840;BME280;15207;42.182;24.308;2022-12-07T01:38:44;99370.88;;;4.10;99.58
27840;BME280;15207;42.182;24.308;2022-12-07T01:41:11;99363.16;;;3.88;100.00
27840;BME280;15207;42.182;24.308;2022-12-07T01:44:06;99364.00;;;3.89;100.00
27840;BME280;15207;42.182;24.308;2022-12-07T01:46:22;99365.97;;;3.85;100.00
27840;BME280;15207;42.182;24.308;2022-12-07T01:48:48;99364.41;;;3.81;100.00
27840;BME280;15207;42.182;24.308;2022-12-07T01:51:15;99362.28;;;3.70;100.00
27840;BME280;15207;42.182;24.308;2022-12-07T01:53:43;99361.19;;;3.74;100.00
27840;BME280;15207;42.182;24.308;2022-12-07T01:56:14;99360.56;;;3.69;100.00
27840;BME280;15207;42.182;24.308;2022-12-07T01:58:42;99354.09;;;3.57;100.00
27840;BME280;15207;42.182;24.308;2022-12-07T02:01:08;99350.91;;;3.31;100.00
27840;BME280;15207;42.182;24.308;2022-12-07T02:03:42;99354.28;;;3.35;100.00
27840;BME280;15207;42.182;24.308;2022-12-07T02:06:10;99350.16;;;3.29;100.00
27840;BME280;15207;42.182;24.308;2022-12-07T02:08:37;99353.63;;;3.29;100.00
27840;BME280;15207;42.182;24.308;2022-12-07T02:11:03;99348.97;;;3.35;100.00
27840;BME280;15207;42.182;24.308;2022-12-07T02:13:33;99356.78;;;3.18;100.00
27840;BME280;15207;42.182;24.308;2022-12-07T02:16:02;99348.66;;;3.41;100.00
27840;BME280;15207;42.182;24.308;2022-12-07T02:18:52;99345.50;;;3.34;100.00
27840;BME280;15207;42.182;24.308;2022-12-07T02:21:41;99335.47;;;3.22;100.00
27840;BME280;15207;42.182;24.308;2022-12-07T02:35:07;99336.91;;;3.10;100.00
27840;BME280;15207;42.182;24.308;2022-12-07T02:42:59;99339.63;;;3.27;100.00
27840;BME280;15207;42.182;24.308;2022-12-07T02:45:29;99337.84;;;3.09;100.00
27840;BME280;15207;42.182;24.308;2022-12-07T02:47:58;99339.09;;;3.01;100.00
27840;BME280;15207;42.182;24.308;2022-12-07T02:50:26;99346.09;;;3.02;100.00
27840;BME280;15207;42.182;24.308;2022-12-07T02:52:52;99341.63;;;3.03;100.00
27840;BME280;15207;42.182;24.308;2022-12-07T02:55:21;99336.78;;;2.94;100.00
27840;BME280;15207;42.182;24.308;2022-12-07T03:00:19;99344.72;;;2.94;100.00
27840;BME280;15207;42.182;24.308;2022-12-07T03:03:04;99339.34;;;2.95;100.00
27840;BME280;15207;42.182;24.308;2022-12-07T03:05:45;99330.66;;;2.93;100.00
27840;BME280;15207;42.182;24.308;2022-12-07T03:13:47;99327.94;;;2.95;100.00
27840;BME280;15207;42.182;24.308;2022-12-07T03:16:23;99317.06;;;3.01;100.00
27840;BME280;15207;42.182;24.308;2022-12-07T03:19:00;99319.34;;;2.89;100.00
27840;BME280;15207;42.182;24.308;2022-12-07T03:21:31;99312.63;;;3.01;100.00
27840;BME280;15207;42.182;24.308;2022-12-07T03:24:00;99317.81;;;3.03;100.00
27840;BME280;15207;42.182;24.308;2022-12-07T03:26:35;99322.53;;;3.15;100.00
27840;BME280;15207;42.182;24.308;2022-12-07T03:29:07;99328.97;;;3.10;100.00
27840;BME280;15207;42.182;24.308;2022-12-07T03:31:40;99331.41;;;2.95;100.00
27840;BME280;15207;42.182;24.308;2022-12-07T03:34:22;99326.66;;;2.84;100.00
27840;BME280;15207;42.182;24.308;2022-12-07T03:37:04;99327.75;;;2.98;100.00
27840;BME280;15207;42.182;24.308;2022-12-07T03:39:35;99330.06;;;3.06;100.00
27840;BME280;15207;42.182;24.308;2022-12-07T03:42:04;99319.56;;;2.85;100.00
27840;BME280;15207;42.182;24.308;2022-12-07T03:44:32;99325.47;;;2.90;100.00
27840;BME280;15207;42.182;24.308;2022-12-07T03:50:06;99319.13;;;2.75;100.00
27840;BME280;15207;42.182;24.308;2022-12-07T03:52:40;99315.63;;;2.74;100.00
27840;BME280;15207;42.182;24.308;2022-12-07T03:55:24;99326.84;;;2.80;100.00
27840;BME280;15207;42.182;24.308;2022-12-07T03:57:56;99315.97;;;2.86;100.00
27840;BME280;15207;42.182;24.308;2022-12-07T04:00:24;99320.56;;;2.82;100.00
27840;BME280;15207;42.182;24.308;2022-12-07T04:02:52;99322.84;;;2.90;100.00
27840;BME280;15207;42.182;24.308;2022-12-07T04:05:18;99314.69;;;2.95;100.00
27840;BME280;15207;42.182;24.308;2022-12-07T04:07:43;99314.78;;;2.93;100.00
27840;BME280;15207;42.182;24.308;2022-12-07T04:10:09;99307.47;;;2.98;100.00
27840;BME280;15207;42.182;24.308;2022-12-07T04:12:35;99303.88;;;2.99;100.00
27840;BME280;15207;42.182;24.308;2022-12-07T04:15:01;99294.38;;;3.32;100.00
27840;BME280;15207;42.182;24.308;2022-12-07T04:17:26;99300.00;;;3.26;100.00
27840;BME280;15207;42.182;24.308;2022-12-07T04:19:52;99297.09;;;3.13;100.00
27840;BME280;15207;42.182;24.308;2022-12-07T04:22:17;99298.94;;;3.11;100.00
27840;BME280;15207;42.182;24.308;2022-12-07T04:24:43;99301.69;;;3.09;100.00
27840;BME280;15207;42.182;24.308;2022-12-07T04:27:08;99298.81;;;2.95;100.00
27840;BME280;15207;42.182;24.308;2022-12-07T04:29:34;99300.31;;;3.00;100.00
27840;BME280;15207;42.182;24.308;2022-12-07T04:31:59;99295.19;;;3.15;100.00
27840;BME280;15207;42.182;24.308;2022-12-07T04:34:25;99291.78;;;3.13;100.00
27840;BME280;15207;42.182;24.308;2022-12-07T04:36:51;99295.56;;;3.07;100.00
27840;BME280;15207;42.182;24.308;2022-12-07T04:39:21;99298.03;;;3.12;100.00
27840;BME280;15207;42.182;24.308;2022-12-07T04:41:47;99288.19;;;3.14;100.00
27840;BME280;15207;42.182;24.308;2022-12-07T04:44:13;99292.09;;;3.07;100.00
27840;BME280;15207;42.182;24.308;2022-12-07T04:46:40;99297.25;;;2.90;100.00
27840;BME280;15207;42.182;24.308;2022-12-07T04:49:06;99298.53;;;3.01;100.00
27840;BME280;15207;42.182;24.308;2022-12-07T04:51:32;99288.72;;;3.03;100.00
27840;BME280;15207;42.182;24.308;2022-12-07T04:53:57;99289.59;;;3.03;100.00
27840;BME280;15207;42.182;24.308;2022-12-07T04:56:24;99302.03;;;3.01;100.00
27840;BME280;15207;42.182;24.308;2022-12-07T04:58:50;99305.53;;;3.02;100.00
27840;BME280;15207;42.182;24.308;2022-12-07T05:01:17;99305.13;;;2.92;100.00
27840;BME280;15207;42.182;24.308;2022-12-07T05:03:42;99309.13;;;2.82;100.00
27840;BME280;15207;42.182;24.308;2022-12-07T05:06:09;99308.41;;;2.59;100.00
27840;BME280;15207;42.182;24.308;2022-12-07T05:08:35;99315.81;;;2.50;100.00
27840;BME280;15207;42.182;24.308;2022-12-07T05:11:01;99327.72;;;2.40;100.00
27840;BME280;15207;42.182;24.308;2022-12-07T05:13:28;99328.13;;;2.31;100.00
27840;BME280;15207;42.182;24.308;2022-12-07T05:15:53;99323.53;;;2.15;100.00
27840;BME280;15207;42.182;24.308;2022-12-07T05:18:19;99323.63;;;2.14;100.00
27840;BME280;15207;42.182;24.308;2022-12-07T05:20:45;99323.75;;;2.10;100.00
27840;BME280;15207;42.182;24.308;2022-12-07T05:23:11;99315.94;;;2.07;100.00
27840;BME280;15207;42.182;24.308;2022-12-07T05:25:36;99321.97;;;2.11;100.00
27840;BME280;15207;42.182;24.308;2022-12-07T05:28:03;99315.94;;;2.07;100.00
27840;BME280;15207;42.182;24.308;2022-12-07T05:30:28;99320.41;;;2.07;100.00
27840;BME280;15207;42.182;24.308;2022-12-07T05:32:54;99322.03;;;2.09;100.00
27840;BME280;15207;42.182;24.308;2022-12-07T05:35:20;99321.78;;;2.16;100.00
27840;BME280;15207;42.182;24.308;2022-12-07T05:37:46;99328.09;;;2.32;100.00
27840;BME280;15207;42.182;24.308;2022-12-07T05:40:12;99328.94;;;2.33;100.00
27840;BME280;15207;42.182;24.308;2022-12-07T05:42:39;99332.38;;;2.35;100.00
27840;BME280;15207;42.182;24.308;2022-12-07T05:45:05;99331.97;;;2.44;100.00
27840;BME280;15207;42.182;24.308;2022-12-07T05:47:31;99333.19;;;2.56;100.00
27840;BME280;15207;42.182;24.308;2022-12-07T05:49:56;99337.25;;;2.63;100.00
27840;BME280;15207;42.182;24.308;2022-12-07T05:52:22;99341.44;;;2.69;100.00
27840;BME280;15207;42.182;24.308;2022-12-07T05:54:48;99337.84;;;2.70;100.00
27840;BME280;15207;42.182;24.308;2022-12-07T05:57:13;99345.19;;;2.63;100.00
27840;BME280;15207;42.182;24.308;2022-12-07T05:59:39;99346.19;;;2.61;100.00
27840;BME280;15207;42.182;24.308;2022-12-07T06:02:08;99339.41;;;2.55;100.00
27840;BME280;15207;42.182;24.308;2022-12-07T06:04:38;99327.50;;;2.66;100.00
27840;BME280;15207;42.182;24.308;2022-12-07T06:07:05;99336.13;;;2.69;100.00
27840;BME280;15207;42.182;24.308;2022-12-07T06:09:31;99317.19;;;2.78;100.00
27840;BME280;15207;42.182;24.308;2022-12-07T06:11:57;99314.13;;;2.88;100.00
27840;BME280;15207;42.182;24.308;2022-12-07T06:14:42;99329.56;;;2.97;100.00
27840;BME280;15207;42.182;24.308;2022-12-07T06:17:08;99325.69;;;3.04;100.00
27840;BME280;15207;42.182;24.308;2022-12-07T06:19:34;99311.88;;;3.17;100.00
27840;BME280;15207;42.182;24.308;2022-12-07T06:22:00;99326.66;;;3.21;100.00
27840;BME280;15207;42.182;24.308;2022-12-07T06:24:26;99326.59;;;3.23;100.00
27840;BME280;15207;42.182;24.308;2022-12-07T06:26:52;99318.81;;;3.20;100.00
27840;BME280;15207;42.182;24.308;2022-12-07T06:29:18;99314.78;;;3.30;100.00
27840;BME280;15207;42.182;24.308;2022-12-07T06:31:44;99310.44;;;3.47;100.00
27840;BME280;15207;42.182;24.308;2022-12-07T06:34:13;99319.34;;;3.46;100.00
27840;BME280;15207;42.182;24.308;2022-12-07T06:36:39;99329.22;;;3.60;100.00
27840;BME280;15207;42.182;24.308;2022-12-07T06:39:06;99323.47;;;3.69;100.00
27840;BME280;15207;42.182;24.308;2022-12-07T06:41:33;99318.75;;;3.76;100.00
27840;BME280;15207;42.182;24.308;2022-12-07T06:43:59;99318.97;;;3.89;100.00
27840;BME280;15207;42.182;24.308;2022-12-07T06:46:25;99329.50;;;3.90;100.00
27840;BME280;15207;42.182;24.308;2022-12-07T06:48:50;99323.47;;;4.04;100.00
27840;BME280;15207;42.182;24.308;2022-12-07T06:51:16;99330.16;;;4.12;100.00
27840;BME280;15207;42.182;24.308;2022-12-07T06:53:42;99329.47;;;4.42;100.00
27840;BME280;15207;42.182;24.308;2022-12-07T06:56:07;99324.22;;;4.58;100.00
27840;BME280;15207;42.182;24.308;2022-12-07T06:58:33;99323.13;;;4.62;100.00
27840;BME280;15207;42.182;24.308;2022-12-07T07:00:59;99313.66;;;4.90;100.00
27840;BME280;15207;42.182;24.308;2022-12-07T07:03:24;99314.28;;;4.95;100.00
27840;BME280;15207;42.182;24.308;2022-12-07T07:05:50;99316.56;;;5.01;100.00
27840;BME280;15207;42.182;24.308;2022-12-07T07:08:15;99311.59;;;5.11;100.00
27840;BME280;15207;42.182;24.308;2022-12-07T07:10:41;99317.25;;;5.05;100.00
27840;BME280;15207;42.182;24.308;2022-12-07T07:13:07;99322.22;;;4.95;100.00
27840;BME280;15207;42.182;24.308;2022-12-07T07:15:34;99327.34;;;4.98;100.00
27840;BME280;15207;42.182;24.308;2022-12-07T07:17:59;99321.00;;;5.01;100.00
27840;BME280;15207;42.182;24.308;2022-12-07T07:20:25;99323.75;;;4.99;100.00
27840;BME280;15207;42.182;24.308;2022-12-07T07:22:54;99326.16;;;5.04;100.00
27840;BME280;15207;42.182;24.308;2022-12-07T07:25:19;99324.47;;;5.03;100.00
27840;BME280;15207;42.182;24.308;2022-12-07T07:27:45;99332.41;;;5.03;100.00
27840;BME280;15207;42.182;24.308;2022-12-07T07:30:12;99327.72;;;5.08;100.00
27840;BME280;15207;42.182;24.308;2022-12-07T07:32:38;99332.22;;;5.06;100.00
27840;BME280;15207;42.182;24.308;2022-12-07T07:35:04;99332.84;;;5.27;100.00
27840;BME280;15207;42.182;24.308;2022-12-07T07:37:30;99333.03;;;5.71;100.00
27840;BME280;15207;42.182;24.308;2022-12-07T07:39:56;99343.28;;;5.77;100.00
27840;BME280;15207;42.182;24.308;2022-12-07T07:42:22;99344.38;;;6.05;100.00
27840;BME280;15207;42.182;24.308;2022-12-07T07:44:47;99342.56;;;6.20;100.00
27840;BME280;15207;42.182;24.308;2022-12-07T07:47:13;99344.50;;;6.33;100.00
27840;BME280;15207;42.182;24.308;2022-12-07T07:49:38;99342.63;;;6.64;100.00
27840;BME280;15207;42.182;24.308;2022-12-07T07:52:05;99343.75;;;6.74;100.00
27840;BME280;15207;42.182;24.308;2022-12-07T07:54:31;99343.94;;;6.71;100.00
27840;BME280;15207;42.182;24.308;2022-12-07T07:56:57;99343.34;;;6.95;100.00
27840;BME280;15207;42.182;24.308;2022-12-07T07:59:22;99346.16;;;7.07;100.00
27840;BME280;15207;42.182;24.308;2022-12-07T08:01:48;99345.59;;;7.16;100.00
27840;BME280;15207;42.182;24.308;2022-12-07T08:04:14;99340.47;;;7.13;100.00
27840;BME280;15207;42.182;24.308;2022-12-07T08:06:40;99339.75;;;7.24;100.00
27840;BME280;15207;42.182;24.308;2022-12-07T08:09:08;99339.25;;;7.32;100.00
27840;BME280;15207;42.182;24.308;2022-12-07T08:11:34;99336.00;;;7.41;100.00
27840;BME280;15207;42.182;24.308;2022-12-07T08:14:01;99343.53;;;7.62;100.00
27840;BME280;15207;42.182;24.308;2022-12-07T08:16:27;99342.50;;;7.77;100.00
27840;BME280;15207;42.182;24.308;2022-12-07T08:18:52;99334.75;;;7.87;99.29
27840;BME280;15207;42.182;24.308;2022-12-07T08:21:18;99336.03;;;7.94;99.17
27840;BME280;15207;42.182;24.308;2022-12-07T08:23:44;99342.28;;;8.08;98.70
27840;BME280;15207;42.182;24.308;2022-12-07T08:26:12;99339.06;;;8.03;97.48
27840;BME280;15207;42.182;24.308;2022-12-07T08:28:38;99335.00;;;8.10;98.12
27840;BME280;15207;42.182;24.308;2022-12-07T08:31:06;99337.38;;;8.28;97.11
27840;BME280;15207;42.182;24.308;2022-12-07T08:33:33;99329.69;;;8.23;97.04
27840;BME280;15207;42.182;24.308;2022-12-07T08:36:04;99336.41;;;8.42;95.73
27840;BME280;15207;42.182;24.308;2022-12-07T08:38:31;99322.09;;;8.43;95.92
27840;BME280;15207;42.182;24.308;2022-12-07T08:40:58;99320.09;;;8.46;95.09
27840;BME280;15207;42.182;24.308;2022-12-07T08:43:24;99318.16;;;8.49;95.90
27840;BME280;15207;42.182;24.308;2022-12-07T08:48:37;99313.13;;;8.83;92.16
27840;BME280;15207;42.182;24.308;2022-12-07T08:51:04;99317.16;;;9.02;92.63
27840;BME280;15207;42.182;24.308;2022-12-07T08:53:31;99303.69;;;9.28;90.97
27840;BME280;15207;42.182;24.308;2022-12-07T08:55:57;99301.47;;;9.46;88.35
27840;BME280;15207;42.182;24.308;2022-12-07T08:58:23;99303.16;;;9.71;87.39
27840;BME280;15207;42.182;24.308;2022-12-07T09:00:49;99303.44;;;9.79;86.68
27840;BME280;15207;42.182;24.308;2022-12-07T09:03:15;99302.41;;;10.05;86.67
27840;BME280;15207;42.182;24.308;2022-12-07T09:05:41;99299.38;;;10.10;84.64
27840;BME280;15207;42.182;24.308;2022-12-07T09:08:08;99295.72;;;9.99;83.67
27840;BME280;15207;42.182;24.308;2022-12-07T09:10:33;99294.84;;;9.99;83.89
27840;BME280;15207;42.182;24.308;2022-12-07T09:12:59;99286.59;;;10.02;83.84
27840;BME280;15207;42.182;24.308;2022-12-07T09:15:29;99276.03;;;10.12;83.45
27840;BME280;15207;42.182;24.308;2022-12-07T09:17:55;99282.50;;;10.21;82.94
27840;BME280;15207;42.182;24.308;2022-12-07T09:20:20;99276.66;;;10.38;80.47
27840;BME280;15207;42.182;24.308;2022-12-07T09:22:46;99266.78;;;10.16;79.38
27840;BME280;15207;42.182;24.308;2022-12-07T09:25:11;99262.06;;;10.31;80.22
27840;BME280;15207;42.182;24.308;2022-12-07T09:27:37;99260.16;;;10.44;78.34
27840;BME280;15207;42.182;24.308;2022-12-07T09:30:04;99261.47;;;10.39;78.27
27840;BME280;15207;42.182;24.308;2022-12-07T09:32:30;99260.22;;;10.09;80.07
27840;BME280;15207;42.182;24.308;2022-12-07T09:34:56;99259.28;;;10.32;80.23
27840;BME280;15207;42.182;24.308;2022-12-07T09:37:22;99255.25;;;10.38;80.53
27840;BME280;15207;42.182;24.308;2022-12-07T09:39:48;99257.34;;;10.46;79.91
27840;BME280;15207;42.182;24.308;2022-12-07T09:42:35;99238.97;;;10.64;78.24
27840;BME280;15207;42.182;24.308;2022-12-07T09:45:05;99242.84;;;10.71;78.17
27840;BME280;15207;42.182;24.308;2022-12-07T09:47:33;99235.69;;;10.49;77.50
27840;BME280;15207;42.182;24.308;2022-12-07T09:50:05;99228.63;;;10.48;78.66
27840;BME280;15207;42.182;24.308;2022-12-07T09:52:33;99234.09;;;10.35;78.04
27840;BME280;15207;42.182;24.308;2022-12-07T09:54:59;99231.16;;;10.27;78.08
27840;BME280;15207;42.182;24.308;2022-12-07T09:57:31;99216.56;;;10.31;78.41
27840;BME280;15207;42.182;24.308;2022-12-07T10:00:12;99220.34;;;10.51;78.32
27840;BME280;15207;42.182;24.308;2022-12-07T10:02:51;99221.19;;;10.63;77.12
27840;BME280;15207;42.182;24.308;2022-12-07T10:05:30;99216.19;;;10.70;78.07
27840;BME280;15207;42.182;24.308;2022-12-07T10:07:57;99218.72;;;10.94;76.97
27840;BME280;15207;42.182;24.308;2022-12-07T10:10:26;99227.00;;;10.68;76.12
27840;BME280;15207;42.182;24.308;2022-12-07T10:12:59;99220.56;;;10.25;77.78
27840;BME280;15207;42.182;24.308;2022-12-07T10:20:47;99198.63;;;11.21;74.38
27840;BME280;15207;42.182;24.308;2022-12-07T10:23:18;99206.06;;;10.74;75.88
27840;BME280;15207;42.182;24.308;2022-12-07T10:25:44;99205.22;;;10.73;75.69
27840;BME280;15207;42.182;24.308;2022-12-07T10:28:14;99201.19;;;10.79;75.83
27840;BME280;15207;42.182;24.308;2022-12-07T10:31:02;99198.22;;;10.93;72.92
27840;BME280;15207;42.182;24.308;2022-12-07T10:33:36;99195.78;;;11.02;73.74
27840;BME280;15207;42.182;24.308;2022-12-07T10:39:09;99209.06;;;10.92;72.45
27840;BME280;15207;42.182;24.308;2022-12-07T10:41:58;99204.81;;;10.89;73.17
27840;BME280;15207;42.182;24.308;2022-12-07T10:44:30;99197.50;;;10.91;73.45
27840;BME280;15207;42.182;24.308;2022-12-07T10:50:14;99194.28;;;10.65;74.62
27840;BME280;15207;42.182;24.308;2022-12-07T11:06:49;99191.72;;;10.63;76.00
27840;BME280;15207;42.182;24.308;2022-12-07T11:11:56;99176.88;;;10.70;75.48
27840;BME280;15207;42.182;24.308;2022-12-07T11:14:44;99170.03;;;10.78;75.06
27840;BME280;15207;42.182;24.308;2022-12-07T11:17:18;99163.59;;;10.69;75.84
27840;BME280;15207;42.182;24.308;2022-12-07T11:22:36;99173.09;;;10.73;76.65
27840;BME280;15207;42.182;24.308;2022-12-07T11:31:13;99152.97;;;10.79;75.28
27840;BME280;15207;42.182;24.308;2022-12-07T11:33:52;99149.44;;;10.78;75.81
27840;BME280;15207;42.182;24.308;2022-12-07T11:36:33;99138.22;;;10.84;75.61
27840;BME280;15207;42.182;24.308;2022-12-07T11:39:28;99131.81;;;11.08;74.77
27840;BME280;15207;42.182;24.308;2022-12-07T11:42:30;99130.03;;;11.19;76.41
27840;BME280;15207;42.182;24.308;2022-12-07T11:47:48;99123.84;;;11.40;73.76
27840;BME280;15207;42.182;24.308;2022-12-07T11:50:45;99121.06;;;11.51;75.36
27840;BME280;15207;42.182;24.308;2022-12-07T11:53:36;99127.22;;;11.42;74.11
27840;BME280;15207;42.182;24.308;2022-12-07T11:56:13;99126.44;;;11.51;75.21
27840;BME280;15207;42.182;24.308;2022-12-07T12:04:04;99114.34;;;11.57;73.73
27840;BME280;15207;42.182;24.308;2022-12-07T12:06:31;99117.81;;;11.47;74.16
27840;BME280;15207;42.182;24.308;2022-12-07T12:09:16;99107.34;;;11.44;73.78
27840;BME280;15207;42.182;24.308;2022-12-07T12:14:35;99100.56;;;11.40;75.81
27840;BME280;15207;42.182;24.308;2022-12-07T12:22:18;99088.59;;;11.23;76.39
27840;BME280;15207;42.182;24.308;2022-12-07T12:24:50;99081.25;;;11.25;75.39
27840;BME280;15207;42.182;24.308;2022-12-07T12:29:57;99077.66;;;10.93;76.25
27840;BME280;15207;42.182;24.308;2022-12-07T12:32:35;99082.06;;;10.94;76.28
27840;BME280;15207;42.182;24.308;2022-12-07T12:37:49;99070.06;;;10.98;76.03
27840;BME280;15207;42.182;24.308;2022-12-07T12:42:45;99077.81;;;11.13;76.17
27840;BME280;15207;42.182;24.308;2022-12-07T12:45:31;99077.00;;;11.22;75.15
27840;BME280;15207;42.182;24.308;2022-12-07T12:48:03;99080.81;;;11.20;76.39
27840;BME280;15207;42.182;24.308;2022-12-07T12:55:46;99082.34;;;11.13;76.96
27840;BME280;15207;42.182;24.308;2022-12-07T13:00:46;99078.91;;;11.10;77.47
27840;BME280;15207;42.182;24.308;2022-12-07T13:03:27;99078.00;;;11.00;76.44
27840;BME280;15207;42.182;24.308;2022-12-07T13:08:57;99076.44;;;10.97;77.27
27840;BME280;15207;42.182;24.308;2022-12-07T13:11:35;99078.06;;;10.89;77.27
27840;BME280;15207;42.182;24.308;2022-12-07T13:16:47;99078.06;;;10.89;78.30
27840;BME280;15207;42.182;24.308;2022-12-07T13:27:35;99073.88;;;10.63;80.16
27840;BME280;15207;42.182;24.308;2022-12-07T13:30:12;99078.41;;;10.63;79.92
27840;BME280;15207;42.182;24.308;2022-12-07T13:32:39;99083.31;;;10.57;80.19
27840;BME280;15207;42.182;24.308;2022-12-07T13:35:31;99072.94;;;10.53;80.16
27840;BME280;15207;42.182;24.308;2022-12-07T13:37:57;99072.84;;;10.43;80.68
27840;BME280;15207;42.182;24.308;2022-12-07T13:40:23;99066.75;;;10.41;80.86
27840;BME280;15207;42.182;24.308;2022-12-07T13:43:01;99078.72;;;10.37;80.86
27840;BME280;15207;42.182;24.308;2022-12-07T13:45:32;99070.69;;;10.37;80.94
27840;BME280;15207;42.182;24.308;2022-12-07T13:48:24;99069.06;;;10.34;81.17
27840;BME280;15207;42.182;24.308;2022-12-07T13:50:56;99073.13;;;10.28;82.06
27840;BME280;15207;42.182;24.308;2022-12-07T13:53:23;99069.97;;;10.23;82.77
27840;BME280;15207;42.182;24.308;2022-12-07T13:55:49;99070.00;;;10.12;82.59
27840;BME280;15207;42.182;24.308;2022-12-07T13:58:14;99068.50;;;10.19;82.49
27840;BME280;15207;42.182;24.308;2022-12-07T14:00:41;99059.88;;;10.15;83.02
27840;BME280;15207;42.182;24.308;2022-12-07T14:05:41;99068.28;;;10.22;83.67
27840;BME280;15207;42.182;24.308;2022-12-07T14:13:35;99073.78;;;9.98;86.51
27840;BME280;15207;42.182;24.308;2022-12-07T14:18:43;99092.84;;;10.04;85.94
27840;BME280;15207;42.182;24.308;2022-12-07T14:23:34;99087.50;;;10.04;84.75
27840;BME280;15207;42.182;24.308;2022-12-07T14:26:19;99084.97;;;10.14;84.22
27840;BME280;15207;42.182;24.308;2022-12-07T14:28:46;99078.03;;;10.12;84.31
27840;BME280;15207;42.182;24.308;2022-12-07T14:31:15;99074.00;;;10.06;84.94
27840;BME280;15207;42.182;24.308;2022-12-07T14:33:41;99076.22;;;10.01;85.67
27840;BME280;15207;42.182;24.308;2022-12-07T14:36:11;99076.47;;;9.86;84.91
27840;BME280;15207;42.182;24.308;2022-12-07T14:38:38;99072.44;;;9.81;85.80
27840;BME280;15207;42.182;24.308;2022-12-07T14:41:04;99078.06;;;9.77;85.56
27840;BME280;15207;42.182;24.308;2022-12-07T14:43:51;99089.59;;;9.55;86.06
27840;BME280;15207;42.182;24.308;2022-12-07T14:46:17;99080.22;;;9.61;86.67
27840;BME280;15207;42.182;24.308;2022-12-07T14:48:43;99093.25;;;9.54;86.89
27840;BME280;15207;42.182;24.308;2022-12-07T14:51:10;99090.53;;;9.43;87.53
27840;BME280;15207;42.182;24.308;2022-12-07T14:53:45;99100.13;;;9.34;87.92
27840;BME280;15207;42.182;24.308;2022-12-07T14:56:11;99099.63;;;9.29;86.85
27840;BME280;15207;42.182;24.308;2022-12-07T14:58:36;99101.09;;;9.21;87.50
27840;BME280;15207;42.182;24.308;2022-12-07T15:01:03;99103.31;;;9.03;88.53
27840;BME280;15207;42.182;24.308;2022-12-07T15:03:28;99094.06;;;8.96;89.07
27840;BME280;15207;42.182;24.308;2022-12-07T15:05:54;99101.63;;;9.02;89.61
27840;BME280;15207;42.182;24.308;2022-12-07T15:08:20;99096.75;;;8.96;89.69